sensor_id;sensor_type;location;lat;lon;timestamp;P1;durP1;ratioP1;P2;durP2;ratioP2
59786;SDS011;45672;51.612;5.536;2022-11-20T00:01:40;22.48;;;13.05;;
59786;SDS011;45672;51.612;5.536;2022-11-20T00:04:05;37.65;;;15.63;;
59786;SDS011;45672;51.612;5.536;2022-11-20T00:06:31;34.40;;;17.67;;
59786;SDS011;45672;51.612;5.536;2022-11-20T00:08:57;23.83;;;14.57;;
59786;SDS011;45672;51.612;5.536;2022-11-20T00:11:26;21.67;;;13.63;;
59786;SDS011;45672;51.612;5.536;2022-11-20T00:13:53;24.95;;;14.07;;
59786;SDS011;45672;51.612;5.536;2022-11-20T00:16:20;22.13;;;14.48;;
59786;SDS011;45672;51.612;5.536;2022-11-20T00:18:48;21.85;;;13.75;;
59786;SDS011;45672;51.612;5.536;2022-11-20T00:21:14;25.55;;;14.38;;
59786;SDS011;45672;51.612;5.536;2022-11-20T00:23:42;26.38;;;14.85;;
59786;SDS011;45672;51.612;5.536;2022-11-20T00:26:08;26.55;;;14.73;;
59786;SDS011;45672;51.612;5.536;2022-11-20T00:28:35;23.25;;;14.20;;
59786;SDS011;45672;51.612;5.536;2022-11-20T00:31:05;24.70;;;14.00;;
59786;SDS011;45672;51.612;5.536;2022-11-20T00:33:30;20.98;;;13.60;;
59786;SDS011;45672;51.612;5.536;2022-11-20T00:36:00;23.38;;;14.23;;
59786;SDS011;45672;51.612;5.536;2022-11-20T00:38:26;25.60;;;14.48;;
59786;SDS011;45672;51.612;5.536;2022-11-20T00:40:58;22.10;;;14.05;;
59786;SDS011;45672;51.612;5.536;2022-11-20T00:43:24;20.63;;;13.57;;
59786;SDS011;45672;51.612;5.536;2022-11-20T00:45:51;21.55;;;14.00;;
59786;SDS011;45672;51.612;5.536;2022-11-20T00:48:21;23.33;;;14.55;;
59786;SDS011;45672;51.612;5.536;2022-11-20T00:50:46;21.73;;;14.25;;
59786;SDS011;45672;51.612;5.536;2022-11-20T00:53:12;24.17;;;14.63;;
59786;SDS011;45672;51.612;5.536;2022-11-20T00:55:37;22.67;;;14.13;;
59786;SDS011;45672;51.612;5.536;2022-11-20T00:58:02;22.35;;;13.70;;
59786;SDS011;45672;51.612;5.536;2022-11-20T01:00:27;24.77;;;14.50;;
59786;SDS011;45672;51.612;5.536;2022-11-20T01:02:55;23.92;;;13.90;;
59786;SDS011;45672;51.612;5.536;2022-11-20T01:05:21;23.08;;;15.35;;
59786;SDS011;45672;51.612;5.536;2022-11-20T01:07:46;23.38;;;14.10;;
59786;SDS011;45672;51.612;5.536;2022-11-20T01:10:11;21.17;;;13.85;;
59786;SDS011;45672;51.612;5.536;2022-11-20T01:12:36;24.17;;;15.45;;
59786;SDS011;45672;51.612;5.536;2022-11-20T01:15:02;23.42;;;14.00;;
59786;SDS011;45672;51.612;5.536;2022-11-20T01:17:27;24.73;;;13.77;;
59786;SDS011;45672;51.612;5.536;2022-11-20T01:19:53;29.83;;;15.27;;
59786;SDS011;45672;51.612;5.536;2022-11-20T01:22:18;23.17;;;15.05;;
59786;SDS011;45672;51.612;5.536;2022-11-20T01:24:43;23.88;;;14.10;;
59786;SDS011;45672;51.612;5.536;2022-11-20T01:27:08;23.15;;;14.10;;
59786;SDS011;45672;51.612;5.536;2022-11-20T01:29:34;22.85;;;14.02;;
59786;SDS011;45672;51.612;5.536;2022-11-20T01:31:59;24.83;;;14.93;;
59786;SDS011;45672;51.612;5.536;2022-11-20T01:34:24;23.13;;;15.18;;
59786;SDS011;45672;51.612;5.536;2022-11-20T01:36:50;23.77;;;14.07;;
59786;SDS011;45672;51.612;5.536;2022-11-20T01:39:18;25.75;;;14.90;;
59786;SDS011;45672;51.612;5.536;2022-11-20T01:41:48;24.10;;;14.98;;
59786;SDS011;45672;51.612;5.536;2022-11-20T01:44:43;23.08;;;14.65;;
59786;SDS011;45672;51.612;5.536;2022-11-20T01:47:17;24.35;;;15.35;;
59786;SDS011;45672;51.612;5.536;2022-11-20T01:49:50;23.30;;;14.52;;
59786;SDS011;45672;51.612;5.536;2022-11-20T01:52:23;23.00;;;14.57;;
59786;SDS011;45672;51.612;5.536;2022-11-20T01:54:54;25.05;;;16.23;;
59786;SDS011;45672;51.612;5.536;2022-11-20T01:57:25;23.50;;;15.13;;
59786;SDS011;45672;51.612;5.536;2022-11-20T01:59:57;24.08;;;15.95;;
59786;SDS011;45672;51.612;5.536;2022-11-20T02:02:28;25.60;;;16.58;;
59786;SDS011;45672;51.612;5.536;2022-11-20T02:04:54;24.80;;;15.45;;
59786;SDS011;45672;51.612;5.536;2022-11-20T02:07:23;26.02;;;16.10;;
59786;SDS011;45672;51.612;5.536;2022-11-20T02:09:49;27.90;;;15.93;;
59786;SDS011;45672;51.612;5.536;2022-11-20T02:12:16;25.98;;;16.58;;
59786;SDS011;45672;51.612;5.536;2022-11-20T02:15:00;23.10;;;15.00;;
59786;SDS011;45672;51.612;5.536;2022-11-20T02:17:25;24.92;;;14.88;;
59786;SDS011;45672;51.612;5.536;2022-11-20T02:19:51;22.52;;;14.80;;
59786;SDS011;45672;51.612;5.536;2022-11-20T02:22:19;25.98;;;14.98;;
59786;SDS011;45672;51.612;5.536;2022-11-20T02:24:53;25.20;;;16.27;;
59786;SDS011;45672;51.612;5.536;2022-11-20T02:27:18;25.63;;;15.45;;
59786;SDS011;45672;51.612;5.536;2022-11-20T02:30:04;26.20;;;16.15;;
59786;SDS011;45672;51.612;5.536;2022-11-20T02:32:33;21.38;;;14.90;;
59786;SDS011;45672;51.612;5.536;2022-11-20T02:37:33;26.67;;;15.63;;
59786;SDS011;45672;51.612;5.536;2022-11-20T02:40:02;25.33;;;15.80;;
59786;SDS011;45672;51.612;5.536;2022-11-20T02:42:27;23.40;;;14.95;;
59786;SDS011;45672;51.612;5.536;2022-11-20T02:44:53;26.88;;;15.73;;
59786;SDS011;45672;51.612;5.536;2022-11-20T02:47:18;26.95;;;15.25;;
59786;SDS011;45672;51.612;5.536;2022-11-20T02:49:43;28.38;;;16.15;;
59786;SDS011;45672;51.612;5.536;2022-11-20T02:52:09;26.17;;;15.68;;
59786;SDS011;45672;51.612;5.536;2022-11-20T02:54:34;22.90;;;14.13;;
59786;SDS011;45672;51.612;5.536;2022-11-20T02:56:59;22.15;;;13.63;;
59786;SDS011;45672;51.612;5.536;2022-11-20T02:59:24;21.90;;;13.80;;
59786;SDS011;45672;51.612;5.536;2022-11-20T03:01:50;20.98;;;13.45;;
59786;SDS011;45672;51.612;5.536;2022-11-20T03:04:15;23.10;;;13.63;;
59786;SDS011;45672;51.612;5.536;2022-11-20T03:06:40;19.65;;;13.25;;
59786;SDS011;45672;51.612;5.536;2022-11-20T03:09:06;23.38;;;13.15;;
59786;SDS011;45672;51.612;5.536;2022-11-20T03:11:31;22.27;;;13.75;;
59786;SDS011;45672;51.612;5.536;2022-11-20T03:13:56;21.52;;;13.32;;
59786;SDS011;45672;51.612;5.536;2022-11-20T03:16:22;19.20;;;13.90;;
59786;SDS011;45672;51.612;5.536;2022-11-20T03:18:48;20.20;;;12.88;;
59786;SDS011;45672;51.612;5.536;2022-11-20T03:21:14;20.95;;;13.02;;
59786;SDS011;45672;51.612;5.536;2022-11-20T03:23:41;21.02;;;13.30;;
59786;SDS011;45672;51.612;5.536;2022-11-20T03:26:13;22.92;;;14.02;;
59786;SDS011;45672;51.612;5.536;2022-11-20T03:28:41;20.50;;;13.40;;
59786;SDS011;45672;51.612;5.536;2022-11-20T03:31:11;21.15;;;14.05;;
59786;SDS011;45672;51.612;5.536;2022-11-20T03:33:38;21.67;;;13.80;;
59786;SDS011;45672;51.612;5.536;2022-11-20T03:36:06;20.58;;;13.77;;
59786;SDS011;45672;51.612;5.536;2022-11-20T03:38:34;23.77;;;14.52;;
59786;SDS011;45672;51.612;5.536;2022-11-20T03:41:00;22.08;;;13.65;;
59786;SDS011;45672;51.612;5.536;2022-11-20T03:43:30;24.20;;;14.00;;
59786;SDS011;45672;51.612;5.536;2022-11-20T03:45:55;22.67;;;14.52;;
59786;SDS011;45672;51.612;5.536;2022-11-20T03:48:21;23.67;;;15.18;;
59786;SDS011;45672;51.612;5.536;2022-11-20T03:50:46;21.88;;;14.13;;
59786;SDS011;45672;51.612;5.536;2022-11-20T03:53:13;23.15;;;13.68;;
59786;SDS011;45672;51.612;5.536;2022-11-20T03:55:38;22.73;;;14.13;;
59786;SDS011;45672;51.612;5.536;2022-11-20T03:58:04;24.30;;;15.15;;
59786;SDS011;45672;51.612;5.536;2022-11-20T04:00:29;21.88;;;14.65;;
59786;SDS011;45672;51.612;5.536;2022-11-20T04:02:57;24.63;;;14.77;;
59786;SDS011;45672;51.612;5.536;2022-11-20T04:05:23;28.70;;;15.18;;
59786;SDS011;45672;51.612;5.536;2022-11-20T04:07:49;26.05;;;14.70;;
59786;SDS011;45672;51.612;5.536;2022-11-20T04:10:14;23.85;;;14.52;;
59786;SDS011;45672;51.612;5.536;2022-11-20T04:12:39;23.48;;;14.02;;
59786;SDS011;45672;51.612;5.536;2022-11-20T04:15:05;22.25;;;14.32;;
59786;SDS011;45672;51.612;5.536;2022-11-20T04:17:30;22.58;;;14.52;;
59786;SDS011;45672;51.612;5.536;2022-11-20T04:19:55;25.33;;;14.70;;
59786;SDS011;45672;51.612;5.536;2022-11-20T04:22:21;23.25;;;13.90;;
59786;SDS011;45672;51.612;5.536;2022-11-20T04:24:46;25.80;;;14.02;;
59786;SDS011;45672;51.612;5.536;2022-11-20T04:27:11;22.90;;;14.32;;
59786;SDS011;45672;51.612;5.536;2022-11-20T04:29:36;20.95;;;13.32;;
59786;SDS011;45672;51.612;5.536;2022-11-20T04:32:02;23.85;;;14.50;;
59786;SDS011;45672;51.612;5.536;2022-11-20T04:34:27;23.35;;;13.15;;
59786;SDS011;45672;51.612;5.536;2022-11-20T04:36:52;21.45;;;14.30;;
59786;SDS011;45672;51.612;5.536;2022-11-20T04:39:17;24.85;;;14.30;;
59786;SDS011;45672;51.612;5.536;2022-11-20T04:41:43;23.20;;;13.52;;
59786;SDS011;45672;51.612;5.536;2022-11-20T04:44:08;20.83;;;13.18;;
59786;SDS011;45672;51.612;5.536;2022-11-20T04:46:35;22.45;;;14.00;;
59786;SDS011;45672;51.612;5.536;2022-11-20T04:49:05;21.27;;;13.63;;
59786;SDS011;45672;51.612;5.536;2022-11-20T04:51:30;25.48;;;14.60;;
59786;SDS011;45672;51.612;5.536;2022-11-20T04:53:56;21.08;;;13.80;;
59786;SDS011;45672;51.612;5.536;2022-11-20T04:56:22;22.92;;;14.00;;
59786;SDS011;45672;51.612;5.536;2022-11-20T04:58:47;21.90;;;13.88;;
59786;SDS011;45672;51.612;5.536;2022-11-20T05:01:17;21.73;;;14.10;;
59786;SDS011;45672;51.612;5.536;2022-11-20T05:03:44;21.87;;;14.37;;
59786;SDS011;45672;51.612;5.536;2022-11-20T05:06:11;21.73;;;13.82;;
59786;SDS011;45672;51.612;5.536;2022-11-20T05:08:38;22.48;;;14.32;;
59786;SDS011;45672;51.612;5.536;2022-11-20T05:11:11;23.05;;;13.57;;
59786;SDS011;45672;51.612;5.536;2022-11-20T05:13:38;22.42;;;13.93;;
59786;SDS011;45672;51.612;5.536;2022-11-20T05:16:04;21.10;;;14.23;;
59786;SDS011;45672;51.612;5.536;2022-11-20T05:18:30;21.90;;;14.88;;
59786;SDS011;45672;51.612;5.536;2022-11-20T05:20:56;21.38;;;13.68;;
59786;SDS011;45672;51.612;5.536;2022-11-20T05:23:22;23.00;;;14.25;;
59786;SDS011;45672;51.612;5.536;2022-11-20T05:25:47;24.85;;;14.40;;
59786;SDS011;45672;51.612;5.536;2022-11-20T05:28:12;22.60;;;15.00;;
59786;SDS011;45672;51.612;5.536;2022-11-20T05:30:38;23.40;;;15.07;;
59786;SDS011;45672;51.612;5.536;2022-11-20T05:33:03;23.77;;;14.88;;
59786;SDS011;45672;51.612;5.536;2022-11-20T05:35:28;26.17;;;15.02;;
59786;SDS011;45672;51.612;5.536;2022-11-20T05:37:53;24.70;;;14.88;;
59786;SDS011;45672;51.612;5.536;2022-11-20T05:40:19;30.83;;;15.88;;
59786;SDS011;45672;51.612;5.536;2022-11-20T05:42:44;24.60;;;15.10;;
59786;SDS011;45672;51.612;5.536;2022-11-20T05:45:09;25.10;;;15.65;;
59786;SDS011;45672;51.612;5.536;2022-11-20T05:47:35;26.83;;;15.88;;
59786;SDS011;45672;51.612;5.536;2022-11-20T05:50:00;23.20;;;14.90;;
59786;SDS011;45672;51.612;5.536;2022-11-20T05:52:29;24.15;;;15.70;;
59786;SDS011;45672;51.612;5.536;2022-11-20T05:54:54;34.60;;;15.93;;
59786;SDS011;45672;51.612;5.536;2022-11-20T05:57:20;26.45;;;15.80;;
59786;SDS011;45672;51.612;5.536;2022-11-20T05:59:45;27.10;;;15.45;;
59786;SDS011;45672;51.612;5.536;2022-11-20T06:02:11;23.63;;;15.63;;
59786;SDS011;45672;51.612;5.536;2022-11-20T06:04:36;26.23;;;15.77;;
59786;SDS011;45672;51.612;5.536;2022-11-20T06:07:01;28.58;;;16.90;;
59786;SDS011;45672;51.612;5.536;2022-11-20T06:09:27;26.85;;;16.75;;
59786;SDS011;45672;51.612;5.536;2022-11-20T06:11:52;27.45;;;17.05;;
59786;SDS011;45672;51.612;5.536;2022-11-20T06:14:17;28.90;;;15.70;;
59786;SDS011;45672;51.612;5.536;2022-11-20T06:16:43;28.55;;;16.73;;
59786;SDS011;45672;51.612;5.536;2022-11-20T06:19:08;28.73;;;16.75;;
59786;SDS011;45672;51.612;5.536;2022-11-20T06:21:33;27.98;;;16.10;;
59786;SDS011;45672;51.612;5.536;2022-11-20T06:23:58;28.30;;;16.35;;
59786;SDS011;45672;51.612;5.536;2022-11-20T06:26:25;27.33;;;16.95;;
59786;SDS011;45672;51.612;5.536;2022-11-20T06:28:52;27.35;;;16.33;;
59786;SDS011;45672;51.612;5.536;2022-11-20T06:31:19;26.60;;;16.90;;
59786;SDS011;45672;51.612;5.536;2022-11-20T06:33:46;28.00;;;16.42;;
59786;SDS011;45672;51.612;5.536;2022-11-20T06:36:12;24.27;;;15.73;;
59786;SDS011;45672;51.612;5.536;2022-11-20T06:38:39;26.65;;;16.30;;
59786;SDS011;45672;51.612;5.536;2022-11-20T06:41:10;23.35;;;16.00;;
59786;SDS011;45672;51.612;5.536;2022-11-20T06:43:37;25.20;;;15.95;;
59786;SDS011;45672;51.612;5.536;2022-11-20T06:46:02;27.25;;;16.98;;
59786;SDS011;45672;51.612;5.536;2022-11-20T06:48:28;26.17;;;16.13;;
59786;SDS011;45672;51.612;5.536;2022-11-20T06:50:54;23.98;;;16.05;;
59786;SDS011;45672;51.612;5.536;2022-11-20T06:53:20;23.73;;;16.30;;
59786;SDS011;45672;51.612;5.536;2022-11-20T06:55:46;31.20;;;17.95;;
59786;SDS011;45672;51.612;5.536;2022-11-20T06:58:13;28.63;;;17.52;;
59786;SDS011;45672;51.612;5.536;2022-11-20T07:00:39;32.20;;;17.08;;
59786;SDS011;45672;51.612;5.536;2022-11-20T07:03:05;34.65;;;18.33;;
59786;SDS011;45672;51.612;5.536;2022-11-20T07:05:32;26.15;;;17.17;;
59786;SDS011;45672;51.612;5.536;2022-11-20T07:07:57;29.85;;;17.98;;
59786;SDS011;45672;51.612;5.536;2022-11-20T07:10:23;31.70;;;18.35;;
59786;SDS011;45672;51.612;5.536;2022-11-20T07:12:49;29.95;;;17.42;;
59786;SDS011;45672;51.612;5.536;2022-11-20T07:15:15;26.65;;;17.05;;
59786;SDS011;45672;51.612;5.536;2022-11-20T07:17:41;24.95;;;15.98;;
59786;SDS011;45672;51.612;5.536;2022-11-20T07:20:06;25.95;;;16.05;;
59786;SDS011;45672;51.612;5.536;2022-11-20T07:22:31;25.30;;;16.13;;
59786;SDS011;45672;51.612;5.536;2022-11-20T07:24:57;25.42;;;16.35;;
59786;SDS011;45672;51.612;5.536;2022-11-20T07:27:22;29.48;;;18.25;;
59786;SDS011;45672;51.612;5.536;2022-11-20T07:29:47;27.70;;;17.50;;
59786;SDS011;45672;51.612;5.536;2022-11-20T07:32:13;26.90;;;16.00;;
59786;SDS011;45672;51.612;5.536;2022-11-20T07:34:38;26.63;;;16.55;;
59786;SDS011;45672;51.612;5.536;2022-11-20T07:37:03;31.23;;;15.95;;
59786;SDS011;45672;51.612;5.536;2022-11-20T07:39:28;25.00;;;16.02;;
59786;SDS011;45672;51.612;5.536;2022-11-20T07:41:54;24.08;;;15.75;;
59786;SDS011;45672;51.612;5.536;2022-11-20T07:44:19;30.58;;;17.48;;
59786;SDS011;45672;51.612;5.536;2022-11-20T07:46:44;29.83;;;19.17;;
59786;SDS011;45672;51.612;5.536;2022-11-20T07:49:09;33.95;;;18.30;;
59786;SDS011;45672;51.612;5.536;2022-11-20T07:51:35;28.08;;;16.35;;
59786;SDS011;45672;51.612;5.536;2022-11-20T07:54:00;29.55;;;17.13;;
59786;SDS011;45672;51.612;5.536;2022-11-20T07:56:25;26.40;;;16.48;;
59786;SDS011;45672;51.612;5.536;2022-11-20T07:58:51;29.63;;;16.83;;
59786;SDS011;45672;51.612;5.536;2022-11-20T08:01:16;30.95;;;17.45;;
59786;SDS011;45672;51.612;5.536;2022-11-20T08:03:41;31.67;;;17.38;;
59786;SDS011;45672;51.612;5.536;2022-11-20T08:06:07;33.80;;;16.83;;
59786;SDS011;45672;51.612;5.536;2022-11-20T08:08:32;27.98;;;16.83;;
59786;SDS011;45672;51.612;5.536;2022-11-20T08:10:58;32.75;;;16.25;;
59786;SDS011;45672;51.612;5.536;2022-11-20T08:13:41;28.52;;;17.42;;
59786;SDS011;45672;51.612;5.536;2022-11-20T08:16:25;27.30;;;16.77;;
59786;SDS011;45672;51.612;5.536;2022-11-20T08:18:51;24.90;;;16.58;;
59786;SDS011;45672;51.612;5.536;2022-11-20T08:21:16;28.73;;;17.42;;
59786;SDS011;45672;51.612;5.536;2022-11-20T08:23:41;25.25;;;16.80;;
59786;SDS011;45672;51.612;5.536;2022-11-20T08:26:06;26.70;;;17.05;;
59786;SDS011;45672;51.612;5.536;2022-11-20T08:28:32;28.75;;;17.60;;
59786;SDS011;45672;51.612;5.536;2022-11-20T08:30:58;28.77;;;17.83;;
59786;SDS011;45672;51.612;5.536;2022-11-20T08:33:25;27.35;;;17.75;;
59786;SDS011;45672;51.612;5.536;2022-11-20T08:35:50;29.65;;;18.60;;
59786;SDS011;45672;51.612;5.536;2022-11-20T08:38:15;26.38;;;16.90;;
59786;SDS011;45672;51.612;5.536;2022-11-20T08:40:40;29.73;;;18.50;;
59786;SDS011;45672;51.612;5.536;2022-11-20T08:43:06;27.75;;;17.85;;
59786;SDS011;45672;51.612;5.536;2022-11-20T08:45:31;28.95;;;18.08;;
59786;SDS011;45672;51.612;5.536;2022-11-20T08:47:59;28.90;;;18.50;;
59786;SDS011;45672;51.612;5.536;2022-11-20T08:50:25;26.95;;;17.17;;
59786;SDS011;45672;51.612;5.536;2022-11-20T08:52:51;28.27;;;18.38;;
59786;SDS011;45672;51.612;5.536;2022-11-20T08:55:16;27.83;;;18.23;;
59786;SDS011;45672;51.612;5.536;2022-11-20T08:57:41;28.98;;;18.85;;
59786;SDS011;45672;51.612;5.536;2022-11-20T09:00:07;26.80;;;17.67;;
59786;SDS011;45672;51.612;5.536;2022-11-20T09:02:33;26.52;;;17.88;;
59786;SDS011;45672;51.612;5.536;2022-11-20T09:04:58;29.90;;;18.67;;
59786;SDS011;45672;51.612;5.536;2022-11-20T09:07:24;30.75;;;18.60;;
59786;SDS011;45672;51.612;5.536;2022-11-20T09:09:49;25.33;;;17.48;;
59786;SDS011;45672;51.612;5.536;2022-11-20T09:12:15;28.98;;;18.80;;
59786;SDS011;45672;51.612;5.536;2022-11-20T09:14:40;29.83;;;19.48;;
59786;SDS011;45672;51.612;5.536;2022-11-20T09:17:05;27.02;;;18.85;;
59786;SDS011;45672;51.612;5.536;2022-11-20T09:19:32;26.67;;;18.27;;
59786;SDS011;45672;51.612;5.536;2022-11-20T09:21:58;25.83;;;17.85;;
59786;SDS011;45672;51.612;5.536;2022-11-20T09:24:25;29.67;;;19.20;;
59786;SDS011;45672;51.612;5.536;2022-11-20T09:26:50;28.80;;;18.75;;
59786;SDS011;45672;51.612;5.536;2022-11-20T09:29:16;29.50;;;19.25;;
59786;SDS011;45672;51.612;5.536;2022-11-20T09:31:41;30.13;;;19.13;;
59786;SDS011;45672;51.612;5.536;2022-11-20T09:34:06;29.77;;;20.10;;
59786;SDS011;45672;51.612;5.536;2022-11-20T09:36:31;27.13;;;18.40;;
59786;SDS011;45672;51.612;5.536;2022-11-20T09:38:57;29.08;;;18.85;;
59786;SDS011;45672;51.612;5.536;2022-11-20T09:44:34;30.85;;;19.83;;
59786;SDS011;45672;51.612;5.536;2022-11-20T09:47:22;28.42;;;18.65;;
59786;SDS011;45672;51.612;5.536;2022-11-20T09:53:18;26.92;;;18.65;;
59786;SDS011;45672;51.612;5.536;2022-11-20T09:55:55;29.98;;;19.30;;
59786;SDS011;45672;51.612;5.536;2022-11-20T09:58:26;32.28;;;19.38;;
59786;SDS011;45672;51.612;5.536;2022-11-20T10:01:33;33.75;;;19.85;;
59786;SDS011;45672;51.612;5.536;2022-11-20T10:06:32;32.22;;;19.38;;
59786;SDS011;45672;51.612;5.536;2022-11-20T10:12:21;41.28;;;20.58;;
59786;SDS011;45672;51.612;5.536;2022-11-20T10:25:19;29.05;;;17.65;;
59786;SDS011;45672;51.612;5.536;2022-11-20T10:30:24;42.50;;;20.10;;
59786;SDS011;45672;51.612;5.536;2022-11-20T10:33:06;36.45;;;19.75;;
59786;SDS011;45672;51.612;5.536;2022-11-20T10:35:43;38.03;;;18.58;;
59786;SDS011;45672;51.612;5.536;2022-11-20T10:38:19;39.10;;;19.58;;
59786;SDS011;45672;51.612;5.536;2022-11-20T10:40:49;41.28;;;19.63;;
59786;SDS011;45672;51.612;5.536;2022-11-20T10:43:39;34.88;;;18.65;;
59786;SDS011;45672;51.612;5.536;2022-11-20T10:46:08;46.28;;;21.75;;
59786;SDS011;45672;51.612;5.536;2022-11-20T10:48:39;48.72;;;21.77;;
59786;SDS011;45672;51.612;5.536;2022-11-20T10:51:10;44.60;;;22.65;;
59786;SDS011;45672;51.612;5.536;2022-11-20T10:58:59;47.30;;;22.23;;
59786;SDS011;45672;51.612;5.536;2022-11-20T11:01:29;49.05;;;22.30;;
59786;SDS011;45672;51.612;5.536;2022-11-20T11:03:55;43.58;;;22.02;;
59786;SDS011;45672;51.612;5.536;2022-11-20T11:06:25;43.78;;;21.00;;
59786;SDS011;45672;51.612;5.536;2022-11-20T11:08:53;46.30;;;21.55;;
59786;SDS011;45672;51.612;5.536;2022-11-20T11:11:26;47.40;;;22.60;;
59786;SDS011;45672;51.612;5.536;2022-11-20T11:16:29;34.35;;;16.55;;
59786;SDS011;45672;51.612;5.536;2022-11-20T11:19:12;44.90;;;21.15;;
59786;SDS011;45672;51.612;5.536;2022-11-20T11:21:38;45.42;;;21.58;;
59786;SDS011;45672;51.612;5.536;2022-11-20T11:24:19;53.38;;;22.58;;
59786;SDS011;45672;51.612;5.536;2022-11-20T11:26:56;47.35;;;22.52;;
59786;SDS011;45672;51.612;5.536;2022-11-20T11:29:24;52.00;;;24.40;;
59786;SDS011;45672;51.612;5.536;2022-11-20T11:32:07;54.83;;;23.98;;
59786;SDS011;45672;51.612;5.536;2022-11-20T11:35:00;50.28;;;23.98;;
59786;SDS011;45672;51.612;5.536;2022-11-20T11:37:27;54.05;;;24.98;;
59786;SDS011;45672;51.612;5.536;2022-11-20T11:39:59;56.95;;;25.23;;
59786;SDS011;45672;51.612;5.536;2022-11-20T11:42:25;56.88;;;25.45;;
59786;SDS011;45672;51.612;5.536;2022-11-20T11:44:57;50.22;;;24.88;;
59786;SDS011;45672;51.612;5.536;2022-11-20T11:47:36;54.83;;;26.17;;
59786;SDS011;45672;51.612;5.536;2022-11-20T11:52:42;54.25;;;26.50;;
59786;SDS011;45672;51.612;5.536;2022-11-20T11:55:12;56.83;;;27.50;;
59786;SDS011;45672;51.612;5.536;2022-11-20T11:57:55;55.10;;;27.63;;
59786;SDS011;45672;51.612;5.536;2022-11-20T12:00:29;56.22;;;27.67;;
59786;SDS011;45672;51.612;5.536;2022-11-20T12:05:47;52.50;;;26.25;;
59786;SDS011;45672;51.612;5.536;2022-11-20T12:08:31;51.22;;;24.98;;
59786;SDS011;45672;51.612;5.536;2022-11-20T12:16:00;61.90;;;27.50;;
59786;SDS011;45672;51.612;5.536;2022-11-20T12:18:27;59.38;;;26.98;;
59786;SDS011;45672;51.612;5.536;2022-11-20T12:23:43;60.13;;;28.42;;
59786;SDS011;45672;51.612;5.536;2022-11-20T12:26:35;58.75;;;28.42;;
59786;SDS011;45672;51.612;5.536;2022-11-20T12:31:54;61.22;;;27.25;;
59786;SDS011;45672;51.612;5.536;2022-11-20T12:34:44;60.92;;;27.70;;
59786;SDS011;45672;51.612;5.536;2022-11-20T12:40:25;61.25;;;27.35;;
59786;SDS011;45672;51.612;5.536;2022-11-20T12:48:36;60.42;;;26.50;;
59786;SDS011;45672;51.612;5.536;2022-11-20T12:51:08;58.38;;;26.73;;
59786;SDS011;45672;51.612;5.536;2022-11-20T12:59:12;58.50;;;25.80;;
59786;SDS011;45672;51.612;5.536;2022-11-20T13:01:48;58.60;;;26.83;;
59786;SDS011;45672;51.612;5.536;2022-11-20T13:07:05;57.25;;;27.08;;
59786;SDS011;45672;51.612;5.536;2022-11-20T13:09:33;53.75;;;25.33;;
59786;SDS011;45672;51.612;5.536;2022-11-20T13:12:06;46.65;;;21.95;;
59786;SDS011;45672;51.612;5.536;2022-11-20T13:20:11;54.08;;;22.77;;
59786;SDS011;45672;51.612;5.536;2022-11-20T13:22:46;60.33;;;26.00;;
59786;SDS011;45672;51.612;5.536;2022-11-20T13:27:56;52.78;;;25.15;;
59786;SDS011;45672;51.612;5.536;2022-11-20T13:30:24;55.88;;;26.23;;
59786;SDS011;45672;51.612;5.536;2022-11-20T13:32:55;56.65;;;26.88;;
59786;SDS011;45672;51.612;5.536;2022-11-20T13:35:26;55.38;;;25.60;;
59786;SDS011;45672;51.612;5.536;2022-11-20T13:38:13;48.42;;;22.33;;
59786;SDS011;45672;51.612;5.536;2022-11-20T13:40:58;54.03;;;25.25;;
59786;SDS011;45672;51.612;5.536;2022-11-20T13:43:49;56.65;;;26.30;;
59786;SDS011;45672;51.612;5.536;2022-11-20T13:46:14;56.88;;;26.23;;
59786;SDS011;45672;51.612;5.536;2022-11-20T13:51:56;56.85;;;27.73;;
59786;SDS011;45672;51.612;5.536;2022-11-20T13:56:34;57.53;;;27.40;;
59786;SDS011;45672;51.612;5.536;2022-11-20T14:02:16;45.78;;;21.20;;
59786;SDS011;45672;51.612;5.536;2022-11-20T14:04:45;61.63;;;29.25;;
59786;SDS011;45672;51.612;5.536;2022-11-20T14:07:13;59.88;;;27.88;;
59786;SDS011;45672;51.612;5.536;2022-11-20T14:09:39;67.50;;;30.02;;
59786;SDS011;45672;51.612;5.536;2022-11-20T14:12:19;65.43;;;29.23;;
59786;SDS011;45672;51.612;5.536;2022-11-20T14:14:47;65.95;;;28.02;;
59786;SDS011;45672;51.612;5.536;2022-11-20T14:19:48;65.38;;;28.92;;
59786;SDS011;45672;51.612;5.536;2022-11-20T14:22:19;65.25;;;28.88;;
59786;SDS011;45672;51.612;5.536;2022-11-20T14:25:01;68.43;;;27.23;;
59786;SDS011;45672;51.612;5.536;2022-11-20T14:27:26;63.67;;;27.88;;
59786;SDS011;45672;51.612;5.536;2022-11-20T14:29:52;55.20;;;25.20;;
59786;SDS011;45672;51.612;5.536;2022-11-20T14:32:17;60.90;;;27.13;;
59786;SDS011;45672;51.612;5.536;2022-11-20T14:34:46;60.50;;;27.55;;
59786;SDS011;45672;51.612;5.536;2022-11-20T14:37:17;58.90;;;26.55;;
59786;SDS011;45672;51.612;5.536;2022-11-20T14:42:23;56.50;;;25.50;;
59786;SDS011;45672;51.612;5.536;2022-11-20T14:44:51;58.22;;;25.52;;
59786;SDS011;45672;51.612;5.536;2022-11-20T14:47:21;66.28;;;27.77;;
59786;SDS011;45672;51.612;5.536;2022-11-20T14:49:50;64.97;;;28.65;;
59786;SDS011;45672;51.612;5.536;2022-11-20T14:52:21;61.88;;;27.52;;
59786;SDS011;45672;51.612;5.536;2022-11-20T14:54:52;60.05;;;26.10;;
59786;SDS011;45672;51.612;5.536;2022-11-20T15:02:41;51.55;;;23.55;;
59786;SDS011;45672;51.612;5.536;2022-11-20T15:05:07;61.92;;;27.48;;
59786;SDS011;45672;51.612;5.536;2022-11-20T15:07:33;70.50;;;28.15;;
59786;SDS011;45672;51.612;5.536;2022-11-20T15:12:31;65.47;;;28.83;;
59786;SDS011;45672;51.612;5.536;2022-11-20T15:14:59;72.32;;;30.23;;
59786;SDS011;45672;51.612;5.536;2022-11-20T15:17:25;66.03;;;29.23;;
59786;SDS011;45672;51.612;5.536;2022-11-20T15:19:51;70.00;;;29.15;;
59786;SDS011;45672;51.612;5.536;2022-11-20T15:22:17;68.90;;;28.80;;
59786;SDS011;45672;51.612;5.536;2022-11-20T15:24:43;59.20;;;27.00;;
59786;SDS011;45672;51.612;5.536;2022-11-20T15:27:09;63.40;;;26.67;;
59786;SDS011;45672;51.612;5.536;2022-11-20T15:29:35;63.40;;;26.70;;
59786;SDS011;45672;51.612;5.536;2022-11-20T15:32:00;56.38;;;24.30;;
59786;SDS011;45672;51.612;5.536;2022-11-20T15:34:26;57.83;;;25.83;;
59786;SDS011;45672;51.612;5.536;2022-11-20T15:36:51;57.08;;;26.63;;
59786;SDS011;45672;51.612;5.536;2022-11-20T15:39:18;61.78;;;26.35;;
59786;SDS011;45672;51.612;5.536;2022-11-20T15:41:43;61.35;;;25.70;;
59786;SDS011;45672;51.612;5.536;2022-11-20T15:44:08;56.70;;;24.58;;
59786;SDS011;45672;51.612;5.536;2022-11-20T15:46:36;59.50;;;25.65;;
59786;SDS011;45672;51.612;5.536;2022-11-20T15:49:05;58.90;;;25.45;;
59786;SDS011;45672;51.612;5.536;2022-11-20T15:51:46;64.03;;;25.65;;
59786;SDS011;45672;51.612;5.536;2022-11-20T15:54:14;69.07;;;27.05;;
59786;SDS011;45672;51.612;5.536;2022-11-20T15:56:43;60.08;;;26.90;;
59786;SDS011;45672;51.612;5.536;2022-11-20T15:59:09;65.78;;;26.98;;
59786;SDS011;45672;51.612;5.536;2022-11-20T16:01:34;66.18;;;27.67;;
59786;SDS011;45672;51.612;5.536;2022-11-20T16:04:00;56.00;;;24.50;;
59786;SDS011;45672;51.612;5.536;2022-11-20T16:06:26;52.72;;;23.30;;